createdAt,value
2023-05-21T00:01:50.020Z,13.13
2023-05-21T00:04:18.272Z,12.83
2023-05-21T00:06:46.483Z,12.90
2023-05-21T00:09:14.734Z,11.97
2023-05-21T00:11:44.295Z,12.33
2023-05-21T00:14:12.414Z,11.23
2023-05-21T00:16:40.624Z,12.30
2023-05-21T00:19:10.413Z,11.53
2023-05-21T00:21:39.628Z,12.30
2023-05-21T00:24:08.061Z,12.33
2023-05-21T00:26:36.242Z,12.77
2023-05-21T00:29:05.780Z,12.93
2023-05-21T00:31:34.009Z,12.13
2023-05-21T00:34:02.171Z,11.90
2023-05-21T00:36:30.936Z,11.47
2023-05-21T00:38:59.143Z,12.33
2023-05-21T00:41:27.256Z,13.27
2023-05-21T00:43:56.456Z,12.80
2023-05-21T00:46:28.705Z,11.93
2023-05-21T00:48:58.152Z,13.00
2023-05-21T00:51:30.369Z,11.53
2023-05-21T00:53:58.563Z,12.03
2023-05-21T00:56:27.837Z,12.33
2023-05-21T00:58:57.306Z,12.10
2023-05-21T01:01:26.906Z,12.03
2023-05-21T01:03:57.939Z,11.77
2023-05-21T01:06:26.275Z,12.97
2023-05-21T01:08:56.268Z,12.70
2023-05-21T01:11:24.879Z,12.50
2023-05-21T01:13:52.974Z,12.37
2023-05-21T01:16:21.471Z,12.70
2023-05-21T01:18:51.858Z,12.93
2023-05-21T01:21:20.160Z,12.33
2023-05-21T01:23:49.798Z,12.40
2023-05-21T01:26:18.593Z,13.07
2023-05-21T01:28:47.110Z,12.20
2023-05-21T01:31:21.573Z,12.67
2023-05-21T01:33:51.289Z,13.27
2023-05-21T01:36:24.316Z,12.57
2023-05-21T01:38:56.764Z,12.23
2023-05-21T01:41:24.968Z,11.43
2023-05-21T01:43:53.078Z,12.87
2023-05-21T01:46:23.102Z,11.83
2023-05-21T01:48:51.693Z,11.67
2023-05-21T01:51:19.881Z,12.20
2023-05-21T01:53:48.008Z,11.83
2023-05-21T01:56:17.608Z,11.53
2023-05-21T01:58:45.766Z,12.60
2023-05-21T02:01:14.045Z,11.40
2023-05-21T02:03:42.289Z,12.17
2023-05-21T02:06:10.619Z,11.77
2023-05-21T02:08:38.742Z,12.17
2023-05-21T02:11:06.985Z,12.07
2023-05-21T02:13:42.880Z,11.07
2023-05-21T02:16:11.980Z,12.03
2023-05-21T02:18:42.213Z,11.80
2023-05-21T02:21:11.507Z,11.53
2023-05-21T02:23:39.647Z,11.33
2023-05-21T02:26:07.816Z,10.53
2023-05-21T02:28:37.329Z,12.00
2023-05-21T02:31:05.574Z,11.90
2023-05-21T02:33:33.817Z,11.80
2023-05-21T02:36:01.962Z,11.70
2023-05-21T02:38:30.115Z,11.10
2023-05-21T02:40:58.220Z,11.30
2023-05-21T02:43:26.371Z,11.60
2023-05-21T02:45:56.424Z,11.73
2023-05-21T02:48:24.602Z,11.33
2023-05-21T02:50:53.123Z,11.83
2023-05-21T02:53:21.226Z,11.43
2023-05-21T02:55:49.436Z,12.80
2023-05-21T02:58:17.700Z,12.40
2023-05-21T03:00:45.913Z,12.40
2023-05-21T03:03:16.278Z,11.77
2023-05-21T03:05:45.896Z,12.20
2023-05-21T03:08:14.031Z,10.97
2023-05-21T03:10:42.216Z,10.90
2023-05-21T03:13:10.761Z,11.53
2023-05-21T03:15:39.725Z,11.67
2023-05-21T03:18:08.109Z,11.20
2023-05-21T03:20:43.659Z,11.27
2023-05-21T03:23:14.880Z,10.83
2023-05-21T03:25:46.122Z,11.63
2023-05-21T03:28:14.372Z,10.77
2023-05-21T03:30:46.500Z,10.53
2023-05-21T03:33:15.668Z,10.17
2023-05-21T03:35:45.264Z,11.13
2023-05-21T03:38:13.395Z,11.47
2023-05-21T03:40:41.559Z,10.27
2023-05-21T03:43:09.747Z,11.13
2023-05-21T03:45:38.618Z,11.07
2023-05-21T03:48:07.782Z,11.10
2023-05-21T03:50:36.747Z,10.43
2023-05-21T03:53:06.264Z,10.63
2023-05-21T03:55:34.532Z,10.50
2023-05-21T03:58:02.838Z,12.90
2023-05-21T04:00:32.645Z,12.30
2023-05-21T04:03:00.905Z,10.83
2023-05-21T04:05:29.170Z,11.23
2023-05-21T04:07:58.828Z,10.53
2023-05-21T04:10:28.378Z,10.40
2023-05-21T04:12:56.598Z,9.60
2023-05-21T04:15:24.750Z,8.73
2023-05-21T04:17:53.507Z,9.17
2023-05-21T04:20:21.719Z,9.07
2023-05-21T04:22:50.457Z,9.90
2023-05-21T04:25:20.464Z,9.53
2023-05-21T04:27:50.254Z,8.67
2023-05-21T04:30:20.118Z,8.93
2023-05-21T04:32:48.341Z,8.83
2023-05-21T04:35:16.832Z,8.87
2023-05-21T04:37:46.095Z,9.17
2023-05-21T04:40:18.248Z,8.63
2023-05-21T04:42:46.973Z,9.13
2023-05-21T04:45:17.214Z,8.87
2023-05-21T04:47:46.270Z,7.57
2023-05-21T04:50:14.815Z,8.10
2023-05-21T04:52:45.654Z,8.40
2023-05-21T04:55:13.869Z,8.80
2023-05-21T04:57:42.009Z,8.20
2023-05-21T05:00:10.983Z,8.40
2023-05-21T05:02:40.813Z,7.90
2023-05-21T05:05:09.630Z,8.13
2023-05-21T05:07:38.084Z,7.70
2023-05-21T05:10:07.360Z,8.43
2023-05-21T05:12:35.493Z,7.30
2023-05-21T05:15:03.692Z,7.23
2023-05-21T05:17:31.946Z,8.03
2023-05-21T05:20:01.546Z,7.40
2023-05-21T05:22:29.772Z,7.13
2023-05-21T05:24:57.936Z,7.10
2023-05-21T05:27:26.389Z,7.00
2023-05-21T05:29:54.523Z,6.47
2023-05-21T05:32:22.683Z,6.80
2023-05-21T05:34:50.865Z,6.30
2023-05-21T05:37:20.426Z,7.20
2023-05-21T05:39:48.570Z,6.77
2023-05-21T05:42:16.699Z,6.87
2023-05-21T05:44:44.803Z,6.70
2023-05-21T05:47:13.060Z,7.00
2023-05-21T05:49:41.743Z,6.77
2023-05-21T05:52:10.293Z,6.30
2023-05-21T05:54:39.853Z,6.40
2023-05-21T05:57:07.952Z,6.43
2023-05-21T05:59:36.156Z,6.27
2023-05-21T06:02:04.354Z,6.03
2023-05-21T06:04:32.502Z,6.10
2023-05-21T06:07:01.039Z,5.97
2023-05-21T06:09:29.277Z,6.27
2023-05-21T06:11:58.908Z,6.20
2023-05-21T06:14:27.033Z,6.10
2023-05-21T06:16:55.317Z,5.83
2023-05-21T06:19:23.512Z,6.00
2023-05-21T06:21:51.677Z,6.50
2023-05-21T06:24:19.834Z,6.83
2023-05-21T06:26:47.974Z,6.10
2023-05-21T06:29:18.336Z,5.93
2023-05-21T06:31:46.500Z,5.67
2023-05-21T06:34:14.796Z,5.93
2023-05-21T06:36:43.046Z,5.60
2023-05-21T06:39:11.308Z,6.13
2023-05-21T06:41:39.557Z,5.93
2023-05-21T06:44:07.673Z,5.53
2023-05-21T06:46:37.237Z,5.60
2023-05-21T06:49:07.174Z,5.93
2023-05-21T06:51:35.496Z,6.10
2023-05-21T06:54:03.634Z,4.90
2023-05-21T06:56:31.792Z,5.33
2023-05-21T06:59:00.113Z,5.00
2023-05-21T07:01:28.333Z,5.20
2023-05-21T07:03:58.023Z,4.80
2023-05-21T07:06:26.324Z,5.57
2023-05-21T07:08:54.477Z,5.30
2023-05-21T07:11:22.673Z,4.97
2023-05-21T07:13:51.087Z,5.07
2023-05-21T07:16:19.277Z,5.20
2023-05-21T07:18:47.439Z,4.97
2023-05-21T07:21:17.417Z,4.90
2023-05-21T07:23:45.751Z,5.33
2023-05-21T07:26:13.910Z,5.03
2023-05-21T07:28:42.057Z,4.63
2023-05-21T07:31:12.334Z,4.90
2023-05-21T07:33:41.056Z,4.90
2023-05-21T07:36:09.380Z,4.30
2023-05-21T07:38:40.234Z,4.57
2023-05-21T07:41:08.432Z,4.80
2023-05-21T07:43:37.054Z,4.33
2023-05-21T07:46:05.343Z,4.43
2023-05-21T07:48:35.456Z,4.13
2023-05-21T07:51:04.988Z,4.70
2023-05-21T07:53:33.447Z,4.23
2023-05-21T07:56:02.979Z,4.60
2023-05-21T07:58:31.241Z,4.10
2023-05-21T08:00:59.383Z,4.90
2023-05-21T08:03:27.991Z,4.20
2023-05-21T08:05:56.718Z,4.37
2023-05-21T08:08:24.949Z,4.10
2023-05-21T08:10:53.102Z,4.10
2023-05-21T08:13:22.795Z,4.13
2023-05-21T08:15:52.890Z,3.60
2023-05-21T08:18:23.916Z,3.70
2023-05-21T08:20:52.247Z,3.83
2023-05-21T08:23:20.387Z,4.60
2023-05-21T08:25:48.547Z,3.80
2023-05-21T08:28:16.910Z,3.33
2023-05-21T08:30:46.565Z,3.43
2023-05-21T08:33:15.259Z,3.57
2023-05-21T08:35:43.423Z,3.63
2023-05-21T08:38:11.612Z,3.50
2023-05-21T08:40:41.566Z,4.03
2023-05-21T08:43:13.840Z,3.50
2023-05-21T08:45:44.077Z,3.45
2023-05-21T08:48:13.633Z,3.67
2023-05-21T08:50:41.783Z,3.42
2023-05-21T08:53:16.055Z,3.50
2023-05-21T08:55:55.798Z,3.20
2023-05-21T08:58:23.941Z,3.88
2023-05-21T09:00:52.215Z,3.95
2023-05-21T09:03:22.567Z,3.72
2023-05-21T09:05:51.330Z,3.10
2023-05-21T09:08:20.753Z,3.55
2023-05-21T09:10:51.370Z,3.65
2023-05-21T09:13:19.795Z,3.25
2023-05-21T09:15:48.024Z,3.10
2023-05-21T09:18:16.249Z,3.33
2023-05-21T09:20:46.118Z,2.92
2023-05-21T09:23:17.081Z,2.92
2023-05-21T09:25:46.754Z,2.72
2023-05-21T09:28:15.252Z,2.90
2023-05-21T09:30:46.941Z,2.88
2023-05-21T09:33:15.133Z,3.28
2023-05-21T09:35:48.102Z,3.25
2023-05-21T09:38:16.225Z,2.95
2023-05-21T09:40:46.372Z,3.20
2023-05-21T09:43:15.948Z,3.00
2023-05-21T09:45:52.377Z,2.70
2023-05-21T09:48:34.210Z,3.00
2023-05-21T09:51:14.466Z,2.90
2023-05-21T09:53:50.096Z,2.65
2023-05-21T09:56:23.842Z,3.00
2023-05-21T09:58:54.942Z,2.63
2023-05-21T10:01:23.188Z,2.80
2023-05-21T10:03:52.426Z,3.13
2023-05-21T10:06:22.125Z,4.05
2023-05-21T10:08:50.442Z,2.75
2023-05-21T10:11:18.843Z,2.88
2023-05-21T10:13:48.308Z,2.83
2023-05-21T10:16:16.513Z,2.80
2023-05-21T10:18:46.440Z,2.70
2023-05-21T10:21:14.786Z,2.95
2023-05-21T10:23:44.422Z,2.67
2023-05-21T10:26:14.795Z,2.97
2023-05-21T10:28:42.966Z,2.33
2023-05-21T10:31:11.255Z,2.30
2023-05-21T10:33:39.510Z,2.60
2023-05-21T10:36:07.799Z,2.33
2023-05-21T10:38:35.957Z,2.60
2023-05-21T10:41:19.345Z,2.53
2023-05-21T10:43:53.210Z,2.67
2023-05-21T10:46:30.556Z,2.65
2023-05-21T10:49:09.509Z,2.30
2023-05-21T10:51:42.308Z,2.58
2023-05-21T10:54:21.243Z,2.60
2023-05-21T10:56:55.801Z,3.03
2023-05-21T10:59:31.241Z,2.67
2023-05-21T11:02:00.254Z,2.50
2023-05-21T11:04:28.723Z,2.65
2023-05-21T11:06:58.087Z,2.80
2023-05-21T11:09:26.297Z,2.97
2023-05-21T11:11:58.957Z,2.88
2023-05-21T11:14:32.718Z,2.60
2023-05-21T11:17:04.856Z,3.03
2023-05-21T11:19:37.811Z,2.42
2023-05-21T11:22:10.464Z,2.50
2023-05-21T11:24:39.746Z,2.60
2023-05-21T11:27:09.737Z,2.70
2023-05-21T11:29:47.352Z,2.65
2023-05-21T11:32:17.415Z,2.55
2023-05-21T11:34:47.110Z,3.05
2023-05-21T11:37:30.086Z,2.70
2023-05-21T11:39:59.463Z,2.97
2023-05-21T11:42:33.116Z,2.70
2023-05-21T11:45:01.660Z,2.90
2023-05-21T11:47:30.015Z,2.92
2023-05-21T11:50:00.165Z,3.30
2023-05-21T11:52:29.895Z,2.97
2023-05-21T11:54:58.433Z,3.10
2023-05-21T11:57:30.858Z,2.95
2023-05-21T12:00:01.556Z,2.55
2023-05-21T12:02:32.812Z,3.10
2023-05-21T12:05:01.469Z,2.90
2023-05-21T12:07:31.430Z,2.70
2023-05-21T12:09:59.896Z,2.78
2023-05-21T12:12:35.499Z,2.80
2023-05-21T12:15:13.570Z,2.80
2023-05-21T12:17:41.801Z,3.10
2023-05-21T12:20:10.960Z,2.60
2023-05-21T12:22:43.437Z,3.38
2023-05-21T12:25:12.520Z,2.70
2023-05-21T12:27:42.155Z,2.58
2023-05-21T12:30:12.254Z,2.85
2023-05-21T12:32:44.143Z,2.67
2023-05-21T12:35:23.089Z,2.70
2023-05-21T12:37:51.985Z,2.60
2023-05-21T12:40:20.484Z,2.80
2023-05-21T12:42:48.661Z,3.00
2023-05-21T12:45:19.028Z,2.97
2023-05-21T12:47:50.378Z,2.83
2023-05-21T12:50:19.827Z,2.92
2023-05-21T12:52:47.990Z,3.00
2023-05-21T12:55:16.210Z,2.80
2023-05-21T12:57:44.339Z,2.70
2023-05-21T13:00:14.371Z,2.90
2023-05-21T13:02:45.534Z,3.05
2023-05-21T13:05:18.224Z,3.45
2023-05-21T13:07:47.481Z,3.00
2023-05-21T13:10:16.718Z,2.85
2023-05-21T13:12:45.606Z,3.20
2023-05-21T13:15:13.880Z,2.80
2023-05-21T13:17:43.476Z,3.10
2023-05-21T13:20:13.093Z,3.50
2023-05-21T13:22:43.422Z,2.80
2023-05-21T13:25:11.877Z,2.88
2023-05-21T13:27:40.097Z,2.80
2023-05-21T13:30:09.615Z,2.60
2023-05-21T13:32:37.880Z,2.97
2023-05-21T13:35:07.901Z,3.10
2023-05-21T13:37:36.877Z,2.95
2023-05-21T13:40:05.907Z,2.65
2023-05-21T13:42:34.094Z,2.70
2023-05-21T13:45:02.461Z,3.10
2023-05-21T13:47:30.659Z,3.00
2023-05-21T13:49:58.757Z,3.10
2023-05-21T13:52:28.407Z,2.85
2023-05-21T13:54:56.542Z,2.45
2023-05-21T13:57:26.772Z,2.70
2023-05-21T13:59:55.067Z,3.13
2023-05-21T14:02:23.347Z,2.90
2023-05-21T14:04:51.640Z,2.90
2023-05-21T14:07:19.877Z,3.17
2023-05-21T14:09:49.461Z,3.00
2023-05-21T14:12:19.030Z,3.47
2023-05-21T14:14:49.890Z,2.80
2023-05-21T14:17:18.130Z,3.30
2023-05-21T14:19:48.008Z,3.42
2023-05-21T14:22:16.261Z,3.00
2023-05-21T14:24:45.115Z,2.80
2023-05-21T14:27:17.414Z,3.40
2023-05-21T14:29:45.932Z,2.97
2023-05-21T14:32:14.322Z,3.40
2023-05-21T14:34:42.724Z,3.55
2023-05-21T14:37:10.866Z,3.05
2023-05-21T14:39:38.990Z,3.05
2023-05-21T14:42:07.460Z,2.67
2023-05-21T14:44:36.969Z,2.97
2023-05-21T14:47:05.511Z,2.80
2023-05-21T14:49:34.006Z,3.88
2023-05-21T14:52:02.593Z,2.90
2023-05-21T14:54:30.778Z,3.13
2023-05-21T14:56:58.965Z,3.03
2023-05-21T14:59:27.101Z,2.80
2023-05-21T15:01:56.752Z,3.47
2023-05-21T15:04:25.400Z,3.00
2023-05-21T15:06:53.593Z,3.20
2023-05-21T15:09:21.748Z,2.80
2023-05-21T15:11:52.624Z,3.25
2023-05-21T15:14:20.876Z,3.30
2023-05-21T15:16:49.112Z,3.30
2023-05-21T15:19:18.669Z,3.17
2023-05-21T15:21:46.986Z,3.00
2023-05-21T15:24:15.125Z,4.78
2023-05-21T15:26:43.283Z,3.13
2023-05-21T15:29:11.449Z,3.28
2023-05-21T15:31:39.659Z,3.05
2023-05-21T15:34:07.917Z,3.05
2023-05-21T15:36:38.273Z,3.33
2023-05-21T15:39:06.590Z,3.20
2023-05-21T15:41:36.546Z,2.95
2023-05-21T15:44:04.932Z,3.15
2023-05-21T15:46:33.167Z,3.15
2023-05-21T15:49:01.353Z,2.90
2023-05-21T15:51:29.465Z,2.85
2023-05-21T15:53:59.016Z,2.88
2023-05-21T15:56:27.474Z,2.78
2023-05-21T15:58:58.295Z,3.17
2023-05-21T16:01:27.917Z,3.47
2023-05-21T16:03:56.301Z,3.08
2023-05-21T16:06:24.463Z,2.70
2023-05-21T16:08:52.706Z,2.72
2023-05-21T16:11:22.645Z,2.97
2023-05-21T16:13:50.817Z,2.90
2023-05-21T16:16:19.071Z,3.08
2023-05-21T16:18:47.289Z,2.70
2023-05-21T16:21:15.860Z,3.05
2023-05-21T16:23:44.117Z,3.00
2023-05-21T16:26:12.371Z,3.30
2023-05-21T16:28:41.963Z,2.92
2023-05-21T16:31:10.930Z,2.92
2023-05-21T16:33:39.072Z,3.20
2023-05-21T16:36:07.606Z,2.65
2023-05-21T16:38:35.837Z,3.70
2023-05-21T16:41:04.142Z,2.80
2023-05-21T16:43:32.404Z,2.70
2023-05-21T16:46:02.170Z,2.70
2023-05-21T16:48:30.408Z,3.20
2023-05-21T16:50:58.677Z,2.90
2023-05-21T16:53:26.954Z,3.05
2023-05-21T16:55:55.187Z,3.20
2023-05-21T16:58:23.375Z,2.53
2023-05-21T17:00:51.548Z,3.38
2023-05-21T17:03:21.489Z,2.90
2023-05-21T17:05:49.961Z,2.90
2023-05-21T17:08:18.184Z,3.33
2023-05-21T17:10:46.460Z,3.03
2023-05-21T17:13:22.051Z,3.25
2023-05-21T17:15:51.866Z,2.70
2023-05-21T17:18:21.460Z,2.53
2023-05-21T17:20:49.585Z,3.08
2023-05-21T17:23:17.761Z,2.60
2023-05-21T17:25:46.433Z,2.80
2023-05-21T17:28:14.852Z,2.75
2023-05-21T17:30:43.094Z,2.70
2023-05-21T17:33:12.338Z,2.60
2023-05-21T17:35:42.019Z,2.65
2023-05-21T17:38:10.494Z,2.88
2023-05-21T17:40:39.015Z,2.70
2023-05-21T17:43:07.484Z,2.97
2023-05-21T17:45:35.989Z,2.85
2023-05-21T17:48:04.375Z,2.70
2023-05-21T17:50:32.674Z,2.58
2023-05-21T17:53:02.239Z,3.03
2023-05-21T17:55:30.707Z,2.80
2023-05-21T17:57:58.866Z,3.17
2023-05-21T18:00:27.040Z,2.88
2023-05-21T18:02:55.280Z,2.63
2023-05-21T18:05:23.786Z,3.08
2023-05-21T18:07:52.119Z,2.80
2023-05-21T18:10:21.632Z,3.10
2023-05-21T18:12:49.909Z,3.03
2023-05-21T18:15:18.134Z,2.53
2023-05-21T18:17:46.622Z,3.08
2023-05-21T18:20:15.862Z,2.72
2023-05-21T18:22:45.260Z,2.88
2023-05-21T18:25:13.483Z,3.47
2023-05-21T18:27:43.038Z,3.58
2023-05-21T18:30:12.195Z,2.83
2023-05-21T18:32:40.454Z,3.10
2023-05-21T18:35:10.942Z,3.10
2023-05-21T18:37:41.701Z,3.40
2023-05-21T18:40:10.996Z,2.90
2023-05-21T18:42:39.212Z,3.30
2023-05-21T18:45:10.358Z,3.30
2023-05-21T18:47:40.281Z,3.35
2023-05-21T18:50:10.247Z,3.10
2023-05-21T18:52:38.383Z,3.10
2023-05-21T18:55:07.546Z,3.30
2023-05-21T18:57:35.751Z,3.17
2023-05-21T19:00:04.085Z,2.85
2023-05-21T19:02:33.780Z,2.70
2023-05-21T19:05:02.984Z,3.20
2023-05-21T19:07:31.184Z,3.03
2023-05-21T19:10:00.187Z,3.17
2023-05-21T19:12:29.462Z,3.23
2023-05-21T19:14:57.621Z,2.83
2023-05-21T19:17:25.926Z,3.23
2023-05-21T19:19:56.821Z,3.07
2023-05-21T19:22:25.174Z,2.93
2023-05-21T19:24:53.493Z,3.07
2023-05-21T19:27:21.602Z,3.10
2023-05-21T19:29:49.794Z,3.10
2023-05-21T19:32:17.975Z,3.47
2023-05-21T19:34:46.671Z,3.37
2023-05-21T19:37:16.751Z,3.43
2023-05-21T19:39:49.593Z,3.27
2023-05-21T19:42:18.218Z,2.83
2023-05-21T19:44:46.634Z,3.40
2023-05-21T19:47:14.889Z,3.60
2023-05-21T19:49:43.169Z,3.63
2023-05-21T19:52:12.143Z,3.40
2023-05-21T19:54:41.711Z,3.60
2023-05-21T19:57:12.308Z,3.37
2023-05-21T19:59:41.068Z,3.77
2023-05-21T20:02:12.277Z,3.50
2023-05-21T20:04:40.424Z,3.90
2023-05-21T20:07:08.813Z,3.20
2023-05-21T20:09:37.010Z,3.50
2023-05-21T20:12:07.172Z,3.10
2023-05-21T20:14:35.316Z,3.30
2023-05-21T20:17:05.685Z,3.50
2023-05-21T20:19:35.025Z,3.47
2023-05-21T20:22:03.229Z,3.50
2023-05-21T20:24:31.396Z,3.47
2023-05-21T20:27:01.762Z,3.63
2023-05-21T20:29:31.931Z,3.70
2023-05-21T20:32:00.057Z,3.43
2023-05-21T20:34:29.711Z,3.80
2023-05-21T20:36:58.411Z,3.53
2023-05-21T20:39:27.920Z,3.80
2023-05-21T20:41:56.212Z,3.80
2023-05-21T20:44:25.998Z,3.83
2023-05-21T20:46:55.515Z,3.43
2023-05-21T20:49:25.045Z,3.50
2023-05-21T20:51:53.266Z,3.70
2023-05-21T20:54:22.343Z,3.50
2023-05-21T20:56:51.212Z,3.50
2023-05-21T20:59:19.422Z,4.03
2023-05-21T21:01:47.780Z,3.83
2023-05-21T21:04:17.909Z,3.87
2023-05-21T21:06:46.617Z,3.83
2023-05-21T21:09:14.827Z,4.33
2023-05-21T21:11:42.992Z,4.30
2023-05-21T21:14:11.096Z,4.00
2023-05-21T21:16:39.257Z,3.80
2023-05-21T21:19:07.575Z,3.80
2023-05-21T21:21:37.208Z,3.40
2023-05-21T21:24:06.076Z,3.13
2023-05-21T21:26:34.267Z,3.73
2023-05-21T21:29:02.453Z,3.27
2023-05-21T21:31:30.831Z,3.97
2023-05-21T21:33:59.066Z,3.90
2023-05-21T21:36:28.917Z,3.43
2023-05-21T21:38:58.567Z,3.40
2023-05-21T21:41:26.714Z,3.50
2023-05-21T21:43:54.872Z,3.60
2023-05-21T21:46:23.263Z,3.60
2023-05-21T21:48:51.505Z,3.23
2023-05-21T21:51:23.185Z,3.57
2023-05-21T21:53:52.861Z,3.40
2023-05-21T21:56:22.416Z,3.40
2023-05-21T21:58:50.613Z,3.40
2023-05-21T22:01:19.267Z,3.20
2023-05-21T22:03:47.491Z,3.30
2023-05-21T22:06:16.158Z,3.23
2023-05-21T22:08:44.388Z,3.30
2023-05-21T22:11:12.765Z,3.33
2023-05-21T22:13:42.739Z,3.47
2023-05-21T22:16:11.936Z,3.23
2023-05-21T22:18:42.017Z,3.50
2023-05-21T22:21:10.910Z,3.00
2023-05-21T22:23:41.528Z,3.20
2023-05-21T22:26:10.295Z,3.50
2023-05-21T22:28:38.408Z,3.40
2023-05-21T22:31:08.620Z,3.03
2023-05-21T22:33:37.257Z,3.17
2023-05-21T22:36:05.902Z,3.60
2023-05-21T22:38:34.113Z,3.47
2023-05-21T22:41:02.301Z,4.00
2023-05-21T22:43:30.571Z,3.30
2023-05-21T22:45:58.805Z,3.03
2023-05-21T22:48:30.675Z,3.50
2023-05-21T22:50:59.202Z,3.47
2023-05-21T22:53:27.304Z,3.30
2023-05-21T22:55:55.509Z,3.40
2023-05-21T22:58:23.697Z,3.20
2023-05-21T23:00:51.827Z,3.70
2023-05-21T23:03:19.989Z,3.03
2023-05-21T23:05:49.592Z,3.40
2023-05-21T23:08:17.841Z,3.17
2023-05-21T23:10:46.103Z,3.17
2023-05-21T23:13:14.195Z,3.53
2023-05-21T23:15:43.859Z,3.47
2023-05-21T23:18:12.538Z,3.00
2023-05-21T23:20:41.947Z,3.07
2023-05-21T23:23:11.965Z,3.10
2023-05-21T23:25:40.133Z,3.23
2023-05-21T23:28:08.291Z,3.27
2023-05-21T23:30:36.614Z,2.83
2023-05-21T23:33:05.078Z,3.20
2023-05-21T23:35:33.338Z,3.07
2023-05-21T23:38:01.558Z,3.40
2023-05-21T23:40:31.035Z,3.20
2023-05-21T23:42:59.250Z,3.10
2023-05-21T23:45:27.457Z,3.37
2023-05-21T23:47:55.722Z,3.23
2023-05-21T23:50:26.062Z,2.90
2023-05-21T23:52:54.242Z,3.00
2023-05-21T23:55:22.377Z,2.93
2023-05-21T23:57:51.845Z,3.00
